KWMC/WMC METAR and TAF weather

Enter ICAO airport designator
Station Type Date Time Source
KWMC METAR 2022/01/29 13:56 UTC NOAA

KWMC 291356Z AUTO 00000KT 10SM CLR M11/M14 A3033 RMK AO2 SLP297 T11061139


Station Type Date Time Source
KWMC Decoded METAR 2022/01/29 13:56 UTC NOAA

WINNEMUCCA MUNICIPAL AIRPORT, NV, United States (KWMC) 40-54N 117-48W 1310M
Jan 29, 2022 - 08:56 AM EST / 2022.01.29 1356 UTC
Wind: Calm:0
Visibility: 10 mile(s):0
Sky conditions: clear
Temperature: 12.9 F (-10.6 C)
Dew Point: 7.0 F (-13.9 C)
Relative Humidity: 76%
Pressure (altimeter): 30.33 in. Hg (1027 hPa)
ob: KWMC 291356Z AUTO 00000KT 10SM CLR M11/M14 A3033 RMK AO2 SLP297 T11061139
cycle: 14

Station Type Date Time Source
KWMC TAF 2022/01/29 12:34 UTC NOAA

TAF KWMC 291131Z 2912/3012 VRB06KT P6SM SCT200

Example: see airport list